createdAt,value
2023-03-27T00:01:13.463Z,2.14
2023-03-27T00:05:13.484Z,2.15
2023-03-27T00:09:13.577Z,2.13
2023-03-27T00:13:13.667Z,2.06
2023-03-27T00:17:13.788Z,2.10
2023-03-27T00:21:13.862Z,2.16
2023-03-27T00:25:13.947Z,2.06
2023-03-27T00:29:14.062Z,2.15
2023-03-27T00:33:14.134Z,2.09
2023-03-27T00:37:14.274Z,2.17
2023-03-27T00:41:14.342Z,2.12
2023-03-27T00:45:14.436Z,2.12
2023-03-27T00:49:14.539Z,2.12
2023-03-27T00:53:14.625Z,2.16
2023-03-27T00:57:14.838Z,2.14
2023-03-27T01:01:14.927Z,2.08
2023-03-27T01:05:14.990Z,2.09
2023-03-27T01:09:20.202Z,2.06
2023-03-27T01:13:16.138Z,2.08
2023-03-27T01:17:15.062Z,2.15
2023-03-27T01:21:15.007Z,2.15
2023-03-27T01:25:15.161Z,2.12
2023-03-27T01:29:15.226Z,2.13
2023-03-27T01:33:15.322Z,2.14
2023-03-27T01:37:15.419Z,2.12
2023-03-27T01:41:15.525Z,2.10
2023-03-27T01:45:15.639Z,2.17
2023-03-27T01:49:15.700Z,2.18
2023-03-27T01:53:15.775Z,2.16
2023-03-27T01:57:15.989Z,2.17
2023-03-27T02:01:16.040Z,2.18
2023-03-27T02:05:16.212Z,2.13
2023-03-27T02:09:16.309Z,2.05
2023-03-27T02:13:16.464Z,2.08
2023-03-27T02:17:16.594Z,2.08
2023-03-27T02:21:16.745Z,2.08
2023-03-27T02:25:16.939Z,2.13
2023-03-27T02:29:17.035Z,2.14
2023-03-27T02:33:17.265Z,2.12
2023-03-27T02:37:17.364Z,2.13
2023-03-27T02:41:17.472Z,2.18
2023-03-27T02:45:17.655Z,2.10
2023-03-27T02:49:17.749Z,2.16
2023-03-27T02:53:17.917Z,2.14
2023-03-27T02:57:18.021Z,2.11
2023-03-27T03:01:18.140Z,2.11
2023-03-27T03:05:18.234Z,2.10
2023-03-27T03:09:18.400Z,2.11
2023-03-27T03:13:18.502Z,2.10
2023-03-27T03:17:18.651Z,2.12
2023-03-27T03:21:18.748Z,2.12
2023-03-27T03:25:18.877Z,2.10
2023-03-27T03:29:19.088Z,2.11
2023-03-27T03:33:19.180Z,2.11
2023-03-27T03:37:19.343Z,2.10
2023-03-27T03:41:19.473Z,2.09
2023-03-27T03:45:19.622Z,2.12
2023-03-27T03:49:19.813Z,2.11
2023-03-27T03:53:20.009Z,2.12
2023-03-27T03:57:20.084Z,2.11
2023-03-27T04:01:20.217Z,2.12
2023-03-27T04:05:20.433Z,1.81
2023-03-27T04:09:20.630Z,1.49
2023-03-27T04:13:20.639Z,1.13
2023-03-27T04:17:20.598Z,0.82
2023-03-27T04:21:20.566Z,0.64
2023-03-27T04:25:20.476Z,0.54
2023-03-27T04:29:20.471Z,0.50
2023-03-27T04:33:20.464Z,0.54
2023-03-27T04:37:23.376Z,0.63
2023-03-27T04:41:20.363Z,0.69
2023-03-27T04:45:20.312Z,0.83
2023-03-27T04:49:20.323Z,0.90
2023-03-27T04:53:20.339Z,0.99
2023-03-27T04:57:20.301Z,0.95
2023-03-27T05:01:20.212Z,0.95
2023-03-27T05:05:20.196Z,0.98
2023-03-27T05:09:20.303Z,0.98
2023-03-27T05:13:20.491Z,1.01
2023-03-27T05:17:20.742Z,1.02
2023-03-27T05:21:20.967Z,1.01
2023-03-27T05:25:20.886Z,1.00
2023-03-27T05:29:20.882Z,0.99
2023-03-27T05:33:20.851Z,0.98
2023-03-27T05:37:20.797Z,1.08
2023-03-27T05:41:20.821Z,1.31
2023-03-27T05:45:20.720Z,1.27
2023-03-27T05:49:20.670Z,1.24
2023-03-27T05:53:20.634Z,1.17
2023-03-27T05:57:21.674Z,1.10
2023-03-27T06:01:20.615Z,1.02
2023-03-27T06:05:20.550Z,0.95
2023-03-27T06:09:20.613Z,0.95
2023-03-27T06:13:20.673Z,0.93
2023-03-27T06:17:20.782Z,0.99
2023-03-27T06:21:20.915Z,1.07
2023-03-27T06:25:20.852Z,1.05
2023-03-27T06:29:21.179Z,1.11
2023-03-27T06:33:20.943Z,1.04
2023-03-27T06:37:20.977Z,1.03
2023-03-27T06:41:21.002Z,1.19
2023-03-27T06:45:20.997Z,1.34
2023-03-27T06:49:21.225Z,4.64
2023-03-27T06:53:27.396Z,5.08
2023-03-27T06:57:22.150Z,4.22
2023-03-27T07:01:21.084Z,3.28
2023-03-27T07:05:21.207Z,3.23
2023-03-27T07:09:21.117Z,2.73
2023-03-27T07:13:21.112Z,2.53
2023-03-27T07:17:21.033Z,2.27
2023-03-27T07:21:21.025Z,2.08
2023-03-27T07:25:20.974Z,1.43
2023-03-27T07:29:20.981Z,1.75
2023-03-27T07:33:20.945Z,1.52
2023-03-27T07:37:21.146Z,0.86
2023-03-27T07:41:20.842Z,1.21
2023-03-27T07:45:21.177Z,1.25
2023-03-27T07:49:20.730Z,1.25
2023-03-27T07:53:33.884Z,1.31
2023-03-27T07:57:21.807Z,1.29
2023-03-27T08:01:20.656Z,1.41
2023-03-27T08:05:20.607Z,1.24
2023-03-27T08:09:20.646Z,1.20
2023-03-27T08:13:20.558Z,1.13
2023-03-27T08:17:22.048Z,0.55
2023-03-27T08:21:20.463Z,0.79
2023-03-27T08:25:20.473Z,0.38
2023-03-27T08:29:20.588Z,0.55
2023-03-27T08:33:20.784Z,0.47
2023-03-27T08:37:20.854Z,0.77
2023-03-27T08:41:21.048Z,1.23
2023-03-27T08:45:21.209Z,1.67
2023-03-27T08:49:21.772Z,2.02
2023-03-27T08:53:21.273Z,2.08
2023-03-27T08:57:21.675Z,2.25
2023-03-27T09:01:21.767Z,2.82
2023-03-27T09:05:21.839Z,2.80
2023-03-27T09:09:21.977Z,3.05
2023-03-27T09:13:21.986Z,3.22
2023-03-27T09:17:22.000Z,3.47
2023-03-27T09:21:22.179Z,2.64
2023-03-27T09:25:22.203Z,3.67
2023-03-27T09:29:22.085Z,3.62
2023-03-27T09:33:23.310Z,3.50
2023-03-27T09:37:22.186Z,3.57
2023-03-27T09:41:22.173Z,3.94
2023-03-27T09:45:22.174Z,4.50
2023-03-27T09:49:22.141Z,4.61
2023-03-27T09:53:22.052Z,5.48
2023-03-27T09:57:22.032Z,4.89
2023-03-27T10:01:22.019Z,4.77
2023-03-27T10:05:22.285Z,4.88
2023-03-27T10:09:21.962Z,5.42
2023-03-27T10:13:21.903Z,5.08
2023-03-27T10:17:21.854Z,5.12
2023-03-27T10:21:21.869Z,7.00
2023-03-27T10:25:21.767Z,9.62
2023-03-27T10:29:22.261Z,1.39
2023-03-27T10:33:21.779Z,1.97
2023-03-27T10:37:21.707Z,2.62
2023-03-27T10:41:29.226Z,2.81
2023-03-27T10:45:22.664Z,3.04
2023-03-27T10:49:21.562Z,3.22
2023-03-27T10:53:21.674Z,4.16
2023-03-27T10:57:21.482Z,3.96
2023-03-27T11:01:21.549Z,3.34
2023-03-27T11:05:21.534Z,3.89
2023-03-27T11:09:21.558Z,4.07
2023-03-27T11:13:21.507Z,4.30
2023-03-27T11:17:21.563Z,4.27
2023-03-27T11:21:21.574Z,5.05
2023-03-27T11:25:21.586Z,4.99
2023-03-27T11:29:21.725Z,4.60
2023-03-27T11:33:21.848Z,4.11
2023-03-27T11:37:21.811Z,3.67
2023-03-27T11:41:21.835Z,3.39
2023-03-27T11:45:21.844Z,3.13
2023-03-27T11:49:21.942Z,2.88
2023-03-27T11:53:22.009Z,2.60
2023-03-27T11:57:22.191Z,2.58
2023-03-27T12:01:22.277Z,2.24
2023-03-27T12:05:22.409Z,1.74
2023-03-27T12:09:22.641Z,0.94
2023-03-27T12:13:28.778Z,1.83
2023-03-27T12:17:23.730Z,1.87
2023-03-27T12:21:22.665Z,2.03
2023-03-27T12:25:22.726Z,2.32
2023-03-27T12:29:24.468Z,2.78
2023-03-27T12:33:23.284Z,2.86
2023-03-27T12:37:22.864Z,3.13
2023-03-27T12:41:22.857Z,3.55
2023-03-27T12:45:22.993Z,3.25
2023-03-27T12:49:44.478Z,3.16
2023-03-27T12:53:24.376Z,2.89
2023-03-27T12:57:23.345Z,0.79
2023-03-27T13:01:23.058Z,0.61
2023-03-27T13:05:27.612Z,0.79
2023-03-27T13:09:24.016Z,0.83
2023-03-27T13:13:22.952Z,1.46
2023-03-27T13:17:22.995Z,2.20
2023-03-27T13:21:23.065Z,1.60
2023-03-27T13:25:23.243Z,1.20
2023-03-27T13:29:23.621Z,2.02
2023-03-27T13:33:23.481Z,1.99
2023-03-27T13:37:23.405Z,2.32
2023-03-27T13:41:25.627Z,1.96
2023-03-27T13:45:23.366Z,2.68
2023-03-27T13:49:23.496Z,2.36
2023-03-27T13:53:23.966Z,2.06
2023-03-27T13:57:23.882Z,1.84
2023-03-27T14:01:24.186Z,1.69
2023-03-27T14:05:24.289Z,1.51
2023-03-27T14:09:24.459Z,1.48
2023-03-27T14:13:24.672Z,1.38
2023-03-27T14:17:24.673Z,1.34
2023-03-27T14:21:37.812Z,1.58
2023-03-27T14:25:25.587Z,1.67
2023-03-27T14:29:24.564Z,1.99
2023-03-27T14:33:24.615Z,2.46
2023-03-27T14:37:24.730Z,2.81
2023-03-27T14:41:24.949Z,2.97
2023-03-27T14:45:25.001Z,3.27
2023-03-27T14:49:25.130Z,3.60
2023-03-27T14:53:25.300Z,3.83
2023-03-27T14:57:25.453Z,4.01
2023-03-27T15:01:25.562Z,4.15
2023-03-27T15:05:25.778Z,4.42
2023-03-27T15:09:25.968Z,4.33
2023-03-27T15:13:26.227Z,4.38
2023-03-27T15:17:26.362Z,4.44
2023-03-27T15:21:26.483Z,4.35
2023-03-27T15:25:26.719Z,4.55
2023-03-27T15:29:26.905Z,4.42
2023-03-27T15:33:26.837Z,4.44
2023-03-27T15:37:26.803Z,4.32
2023-03-27T15:41:26.786Z,4.30
2023-03-27T15:45:26.744Z,4.31
2023-03-27T15:49:26.738Z,4.34
2023-03-27T15:53:26.684Z,4.32
2023-03-27T15:57:26.670Z,4.27
2023-03-27T16:01:26.681Z,4.28
2023-03-27T16:05:26.584Z,4.35
2023-03-27T16:09:26.486Z,4.29
2023-03-27T16:13:26.611Z,4.35
2023-03-27T16:17:26.603Z,4.26
2023-03-27T16:21:26.563Z,4.20
2023-03-27T16:25:26.577Z,4.17
2023-03-27T16:29:26.456Z,4.31
2023-03-27T16:33:26.427Z,4.06
2023-03-27T16:37:26.364Z,4.10
2023-03-27T16:41:26.388Z,4.00
2023-03-27T16:45:26.339Z,4.13
2023-03-27T16:49:26.350Z,3.86
2023-03-27T16:53:26.208Z,3.77
2023-03-27T16:57:26.200Z,3.69
2023-03-27T17:01:26.273Z,3.48
2023-03-27T17:05:26.150Z,3.45
2023-03-27T17:09:26.107Z,3.33
2023-03-27T17:13:26.041Z,3.37
2023-03-27T17:17:26.023Z,3.34
2023-03-27T17:21:25.971Z,3.26
2023-03-27T17:25:25.960Z,3.30
2023-03-27T17:29:25.906Z,3.23
2023-03-27T17:33:25.859Z,3.14
2023-03-27T17:37:25.866Z,3.08
2023-03-27T17:41:25.794Z,3.17
2023-03-27T17:45:25.791Z,3.24
2023-03-27T17:49:25.731Z,3.26
2023-03-27T17:53:25.704Z,3.22
2023-03-27T17:57:25.678Z,3.29
2023-03-27T18:01:25.860Z,3.29
2023-03-27T18:05:25.864Z,3.32
2023-03-27T18:09:25.972Z,3.31
2023-03-27T18:13:26.055Z,3.25
2023-03-27T18:17:26.203Z,3.27
2023-03-27T18:21:26.244Z,3.19
2023-03-27T18:25:26.387Z,3.20
2023-03-27T18:29:26.508Z,3.28
2023-03-27T18:33:26.651Z,3.24
2023-03-27T18:37:26.676Z,3.39
2023-03-27T18:41:26.797Z,3.35
2023-03-27T18:45:26.862Z,3.53
2023-03-27T18:49:26.969Z,2.83
2023-03-27T18:53:27.142Z,2.60
2023-03-27T18:57:27.338Z,2.21
2023-03-27T19:01:27.514Z,1.73
2023-03-27T19:05:27.706Z,1.40
2023-03-27T19:09:34.467Z,1.29
2023-03-27T19:13:28.643Z,1.18
2023-03-27T19:17:27.655Z,1.10
2023-03-27T19:21:27.850Z,1.23
2023-03-27T19:25:28.052Z,1.43
2023-03-27T19:29:28.226Z,1.61
2023-03-27T19:33:28.374Z,1.63
2023-03-27T19:37:28.514Z,1.87
2023-03-27T19:41:28.639Z,2.09
2023-03-27T19:45:28.774Z,2.21
2023-03-27T19:49:28.848Z,2.50
2023-03-27T19:53:28.953Z,2.66
2023-03-27T19:57:29.057Z,2.88
2023-03-27T20:01:29.231Z,3.00
2023-03-27T20:05:29.382Z,3.17
2023-03-27T20:09:29.461Z,3.27
2023-03-27T20:13:29.533Z,3.40
2023-03-27T20:17:29.560Z,3.39
2023-03-27T20:21:29.625Z,3.54
2023-03-27T20:25:29.775Z,3.53
2023-03-27T20:29:29.837Z,3.67
2023-03-27T20:33:29.912Z,3.70
2023-03-27T20:37:30.055Z,3.63
2023-03-27T20:41:30.172Z,3.68
2023-03-27T20:45:30.354Z,3.71
2023-03-27T20:49:40.709Z,3.78
2023-03-27T20:53:33.877Z,3.82
2023-03-27T20:57:30.292Z,3.80
2023-03-27T21:01:30.288Z,3.88
2023-03-27T21:05:30.289Z,3.87
2023-03-27T21:09:30.154Z,3.86
2023-03-27T21:13:30.125Z,3.86
2023-03-27T21:17:30.267Z,3.84
2023-03-27T21:21:30.066Z,3.88
2023-03-27T21:25:30.055Z,3.82
2023-03-27T21:29:29.981Z,3.89
2023-03-27T21:33:29.942Z,3.85
2023-03-27T21:37:29.942Z,3.85
2023-03-27T21:41:29.997Z,3.83
2023-03-27T21:45:30.130Z,3.80
2023-03-27T21:49:30.231Z,3.74
2023-03-27T21:53:30.380Z,3.81
2023-03-27T21:57:30.430Z,3.79
2023-03-27T22:01:30.681Z,3.80
2023-03-27T22:05:30.665Z,3.75
2023-03-27T22:09:30.803Z,3.76
2023-03-27T22:13:31.082Z,3.78
2023-03-27T22:17:31.220Z,3.83
2023-03-27T22:21:31.262Z,3.79
2023-03-27T22:25:31.397Z,3.82
2023-03-27T22:29:31.531Z,3.77
2023-03-27T22:33:31.580Z,3.75
2023-03-27T22:37:31.724Z,3.76
2023-03-27T22:41:31.863Z,3.74
2023-03-27T22:45:32.046Z,3.74
2023-03-27T22:49:32.112Z,3.76
2023-03-27T22:53:32.302Z,3.69
2023-03-27T22:57:32.457Z,3.71
2023-03-27T23:01:32.595Z,3.70
2023-03-27T23:05:32.701Z,3.67
2023-03-27T23:09:32.852Z,3.63
2023-03-27T23:13:32.991Z,3.68
2023-03-27T23:17:33.236Z,3.65
2023-03-27T23:21:33.422Z,3.67
2023-03-27T23:25:33.547Z,3.63
2023-03-27T23:29:33.786Z,3.64
2023-03-27T23:33:33.940Z,3.61
2023-03-27T23:37:34.145Z,3.59
2023-03-27T23:41:34.327Z,3.59
2023-03-27T23:45:34.586Z,3.57
2023-03-27T23:49:40.074Z,3.57
2023-03-27T23:53:34.806Z,3.59
2023-03-27T23:57:35.042Z,3.57
